Sim-Planet VA

Sim-Planet Nouvel Horizon. By: Anthony Pay
Since 2020.




 METAR ET TAF INFORMATION
METAR FOR LEST
ADDS - METARS form results

(2110 UTC 28 January 2022)
Data provider http://aviationweather.gov/metar/data/
 
METAR text: LEST 282100Z VRB01KT CAVOK 05/01 Q1032 NOSIG
Conditions at: LEST (SANTIAGO/LABACOL, ES) observed 2100 UTC 28 January 2022
Temperature: 5.0°C (41°F)
Dewpoint: 1.0°C (34°F) [RH = 75%]
Pressure (altimeter): 30.47 inches Hg (1032.0 mb)
Winds: variable direction winds at 1 MPH (1 knots; 0.5 m/s)
Visibility: 6 or more miles (10+ km)
Ceiling: ceiling and visibility are OK
Clouds: unknown
Weather: no significant weather observed at this time

METAR text: LEST 282030Z VRB02KT CAVOK 07/02 Q1032 NOSIG
Conditions at: LEST (SANTIAGO/LABACOL, ES) observed 2030 UTC 28 January 2022
Temperature: 7.0°C (45°F)
Dewpoint: 2.0°C (36°F) [RH = 70%]
Pressure (altimeter): 30.47 inches Hg (1032.0 mb)
Winds: variable direction winds at 2 MPH (2 knots; 1.0 m/s)
Visibility: 6 or more miles (10+ km)
Ceiling: ceiling and visibility are OK
Clouds: unknown
Weather: no significant weather observed at this time

Forecast for: LEST (SANTIAGO/LABACOL, ES)
Text: TAF LEST 281700Z 2818/2918 08007KT CAVOK TX15/2915Z TN01/2907Z
Forecast period: 1800 UTC 28 January 2022 to 1800 UTC 29 January 2022
Forecast type: FROM: standard forecast or significant change
Winds: from the E (80 degrees) at 8 MPH (7 knots; 3.6 m/s)
Visibility: 6 or more miles (10+ km)
Ceiling: unknown
Clouds: missing
Weather: no significant weather forecast for this period

 AÉROPORT DE AÉROPORT

 INFORMATIONS DE PISTE
Piste 17 Longueur de la piste 10499 ft Largeur de la piste 148 ft
Élévation de la piste 1170 ft Seuil de la piste déplacés 394 ft Runway heading 166
Piste 35 Longueur de la piste 10499 ft Largeur de la piste 148 ft
Élévation de la piste 1196 ft Seuil de la piste déplacés 0 ft Runway heading 346

 AÉROPORT FRÉQUENCES
Type APP Nom APP Féquence 118.2 MHZ
Type GND Nom GND Féquence 121.7 MHZ
Type TWR Nom TWR Féquence 118.75 MHZ

 SIDA DE NAVIGATION
Type NDB Nom Santiago Féquence 417 KHZ
Type VOR-DME Nom Santiago Féquence 116400 KHZ

Nos Partenaires